Time;durP1;ratioP1;P1;durP2;ratioP2;P2;SDS_P1;SDS_P2;PMS_P1;PMS_P2;Temp;Humidity;BMP_temperature;BMP_pressure;BME280_temperature;BME280_humidity;BME280_pressure;Samples;Min_cycle;Max_cycle;Signal;HPM_P1;HPM_P2
2024/01/13 00:00:33;;;;;;;28.73;16.60;;;1.70;90.00;;;;;;6276479;22;20003;-65
2024/01/13 00:03:00;;;;;;;27.03;15.87;;;1.70;90.10;;;;;;6276191;22;20012;-65
2024/01/13 00:05:26;;;;;;;26.37;14.60;;;1.70;90.20;;;;;;6276402;22;19996;-64
2024/01/13 00:07:52;;;;;;;28.90;15.33;;;1.70;90.70;;;;;;6276084;22;20075;-64
2024/01/13 00:10:18;;;;;;;26.40;14.53;;;1.60;90.50;;;;;;6276108;22;20374;-65
2024/01/13 00:12:44;;;;;;;26.97;15.63;;;1.70;90.70;;;;;;6249232;22;20042;-65
2024/01/13 00:15:10;;;;;;;25.57;14.23;;;1.60;90.80;;;;;;6276110;22;20026;-64
2024/01/13 00:17:36;;;;;;;24.03;13.63;;;1.60;91.00;;;;;;6275561;22;20193;-64
2024/01/13 00:20:03;;;;;;;31.50;16.50;;;1.60;91.00;;;;;;6276049;22;20031;-65
2024/01/13 00:22:28;;;;;;;30.60;17.37;;;1.70;90.90;;;;;;6276291;22;20019;-65
2024/01/13 00:24:54;;;;;;;28.40;16.17;;;1.70;90.20;;;;;;6276097;22;20000;-64
2024/01/13 00:27:20;;;;;;;29.00;16.43;;;1.70;90.10;;;;;;6276059;22;20015;-65
2024/01/13 00:29:46;;;;;;;28.53;16.77;;;1.70;90.10;;;;;;6306452;22;20017;-65
2024/01/13 00:32:12;;;;;;;27.27;15.37;;;1.60;90.20;;;;;;6307099;22;20074;-64
2024/01/13 00:34:38;;;;;;;27.20;16.13;;;1.60;90.70;;;;;;6306968;22;20486;-64
2024/01/13 00:37:03;;;;;;;28.03;16.17;;;1.50;90.30;;;;;;6306823;22;20068;-64
2024/01/13 00:39:29;;;;;;;29.50;15.50;;;1.50;90.20;;;;;;6307082;22;20076;-64
2024/01/13 00:41:55;;;;;;;26.07;15.63;;;1.50;90.20;;;;;;6307003;22;20031;-65
2024/01/13 00:44:20;;;;;;;31.77;16.33;;;1.50;90.40;;;;;;6306756;22;20010;-65
2024/01/13 00:46:46;;;;;;;24.50;16.33;;;1.50;90.30;;;;;;6306338;22;20007;-65
2024/01/13 00:49:12;;;;;;;26.77;15.57;;;1.40;90.20;;;;;;6306859;22;19999;-64
2024/01/13 00:51:38;;;;;;;27.33;15.83;;;1.40;90.30;;;;;;6306963;22;20021;-64
2024/01/13 00:54:06;;;;;;;25.00;15.23;;;1.50;90.20;;;;;;6307008;22;20386;-65
2024/01/13 00:56:35;;;;;;;27.87;17.50;;;1.40;90.60;;;;;;6307132;22;20003;-65
2024/01/13 00:59:01;;;;;;;30.70;18.07;;;1.40;90.70;;;;;;6306691;22;20575;-65
2024/01/13 01:01:27;;;;;;;33.33;18.90;;;1.40;90.90;;;;;;6306759;22;20000;-64
2024/01/13 01:03:52;;;;;;;35.63;17.97;;;1.30;91.20;;;;;;6306643;22;19999;-65
2024/01/13 01:06:18;;;;;;;30.30;17.93;;;1.30;91.10;;;;;;6306657;22;20006;-65
2024/01/13 01:08:44;;;;;;;33.43;18.67;;;1.30;91.00;;;;;;6306932;22;19996;-65
2024/01/13 01:11:10;;;;;;;34.13;19.90;;;1.30;91.00;;;;;;6306929;22;20011;-64
2024/01/13 01:13:36;;;;;;;32.03;18.33;;;1.30;91.00;;;;;;6306710;22;20370;-64
2024/01/13 01:16:02;;;;;;;32.17;18.90;;;1.20;91.00;;;;;;6306479;22;20078;-65
2024/01/13 01:18:28;;;;;;;32.30;18.80;;;1.20;91.20;;;;;;6306601;22;20375;-63
2024/01/13 01:20:54;;;;;;;31.43;18.83;;;1.20;91.50;;;;;;6278879;22;20007;-64
2024/01/13 01:23:19;;;;;;;36.30;17.47;;;1.10;91.90;;;;;;6306264;22;20090;-63
2024/01/13 01:25:45;;;;;;;33.87;18.27;;;1.10;91.80;;;;;;6306959;22;19995;-64
2024/01/13 01:28:11;;;;;;;27.97;16.13;;;1.00;92.00;;;;;;6308622;22;19999;-64
2024/01/13 01:30:36;;;;;;;29.43;17.87;;;1.00;92.40;;;;;;6308840;22;20000;-64
2024/01/13 01:33:02;;;;;;;33.53;18.50;;;1.00;92.50;;;;;;6308711;22;20010;-64
2024/01/13 01:35:28;;;;;;;31.60;17.63;;;1.00;92.30;;;;;;6308738;22;20078;-65
2024/01/13 01:37:54;;;;;;;29.63;17.47;;;1.00;92.40;;;;;;6308991;22;20342;-64
2024/01/13 01:40:20;;;;;;;30.03;16.37;;;1.00;92.80;;;;;;6308486;22;20058;-64
2024/01/13 01:42:46;;;;;;;31.10;17.57;;;1.00;92.50;;;;;;6309030;22;20007;-65
2024/01/13 01:45:12;;;;;;;33.73;18.17;;;1.00;92.80;;;;;;6309059;22;20026;-64
2024/01/13 01:47:40;;;;;;;29.87;17.40;;;1.00;92.40;;;;;;6308502;22;20037;-65
2024/01/13 01:50:08;;;;;;;30.87;18.50;;;0.90;92.40;;;;;;6308253;22;20409;-65
2024/01/13 01:52:35;;;;;;;36.47;19.40;;;0.90;92.20;;;;;;6308443;22;20078;-65
2024/01/13 01:55:01;;;;;;;32.60;18.63;;;0.90;92.20;;;;;;6308719;22;20425;-64
2024/01/13 01:57:27;;;;;;;30.07;18.47;;;0.90;92.20;;;;;;6308407;22;20329;-65
2024/01/13 01:59:53;;;;;;;34.37;17.37;;;0.90;92.40;;;;;;6304771;22;20000;-64
2024/01/13 02:02:20;;;;;;;27.47;15.97;;;0.80;92.40;;;;;;6305329;22;20018;-65
2024/01/13 02:04:48;;;;;;;26.20;14.80;;;0.80;92.50;;;;;;6306333;22;20018;-64
2024/01/13 02:07:15;;;;;;;25.20;14.13;;;0.80;92.70;;;;;;6308099;22;20042;-64
2024/01/13 02:09:42;;;;;;;25.43;14.90;;;0.90;96.40;;;;;;6308338;22;20003;-65
2024/01/13 02:12:08;;;;;;;27.17;14.23;;;0.90;96.10;;;;;;6308684;22;20006;-64
2024/01/13 02:14:34;;;;;;;23.03;13.47;;;0.90;96.80;;;;;;6306278;22;20279;-65
2024/01/13 02:16:59;;;;;;;29.10;15.03;;;0.90;97.30;;;;;;6308427;22;20002;-65
2024/01/13 02:19:31;;;;;;;27.23;13.97;;;0.90;97.20;;;;;;6308383;22;20034;-65
2024/01/13 02:21:57;;;;;;;22.17;13.20;;;0.90;97.20;;;;;;6307533;22;20015;-64
2024/01/13 02:24:23;;;;;;;22.57;12.90;;;0.90;97.60;;;;;;6308145;22;20083;-64
2024/01/13 02:26:48;;;;;;;23.70;13.93;;;0.90;97.70;;;;;;6308184;22;20037;-64
2024/01/13 02:29:14;;;;;;;22.67;12.77;;;0.90;98.20;;;;;;6307831;22;20074;-64
2024/01/13 02:31:40;;;;;;;22.07;13.13;;;0.90;98.70;;;;;;6307949;22;20003;-64
2024/01/13 02:34:06;;;;;;;26.20;15.03;;;0.80;98.60;;;;;;6308250;22;20062;-65
2024/01/13 02:36:31;;;;;;;28.00;14.20;;;0.90;97.60;;;;;;6307611;22;19999;-65
2024/01/13 02:38:57;;;;;;;27.60;15.70;;;0.80;97.70;;;;;;6307194;22;20430;-64
2024/01/13 02:41:23;;;;;;;32.87;17.87;;;0.80;97.70;;;;;;6307926;22;19999;-64
2024/01/13 02:43:49;;;;;;;33.07;17.63;;;0.70;97.90;;;;;;6307603;22;20132;-65
2024/01/13 02:46:15;;;;;;;33.40;18.33;;;0.70;98.30;;;;;;6308038;22;20002;-65
2024/01/13 02:48:44;;;;;;;32.83;18.00;;;0.70;98.20;;;;;;6308044;22;20003;-64
2024/01/13 02:51:13;;;;;;;34.13;17.70;;;0.60;98.10;;;;;;6308165;22;20393;-65
2024/01/13 02:53:40;;;;;;;32.63;17.20;;;0.60;98.30;;;;;;6308177;22;19996;-65
2024/01/13 02:56:06;;;;;;;31.70;18.37;;;0.60;98.30;;;;;;6308206;22;20011;-64
2024/01/13 02:58:32;;;;;;;32.93;18.60;;;0.60;98.30;;;;;;6308311;22;19999;-65
2024/01/13 03:00:58;;;;;;;32.47;17.50;;;0.60;98.60;;;;;;6307986;22;19999;-64
2024/01/13 03:03:24;;;;;;;37.93;16.97;;;0.60;99.20;;;;;;6307686;22;20019;-64
2024/01/13 03:05:50;;;;;;;28.73;13.83;;;0.50;99.90;;;;;;6307459;22;20004;-64
2024/01/13 03:08:15;;;;;;;21.07;12.67;;;0.40;94.10;;;;;;6307655;22;19999;-64
2024/01/13 03:10:41;;;;;;;21.10;12.23;;;0.40;94.00;;;;;;6307988;22;20003;-65
2024/01/13 03:13:07;;;;;;;21.33;12.37;;;0.40;94.20;;;;;;6308015;22;19999;-65
2024/01/13 03:15:32;;;;;;;24.10;12.63;;;0.40;94.40;;;;;;6307731;22;20001;-64
2024/01/13 03:17:58;;;;;;;28.07;14.07;;;0.40;94.30;;;;;;6307703;22;20065;-64
2024/01/13 03:20:24;;;;;;;25.13;14.50;;;0.40;94.40;;;;;;6307902;22;19995;-64
2024/01/13 03:22:49;;;;;;;27.20;15.80;;;0.40;94.30;;;;;;6307856;22;20130;-65
2024/01/13 03:25:15;;;;;;;28.90;15.53;;;0.40;94.20;;;;;;6307830;22;20004;-64
2024/01/13 03:27:41;;;;;;;23.93;13.97;;;0.40;94.60;;;;;;6307588;22;20429;-64
2024/01/13 03:30:07;;;;;;;23.03;13.27;;;0.30;95.00;;;;;;6307824;22;20029;-64
2024/01/13 03:32:33;;;;;;;22.53;12.87;;;0.30;95.40;;;;;;6308026;22;20023;-65
2024/01/13 03:34:59;;;;;;;24.97;13.20;;;0.30;95.70;;;;;;6307788;22;19995;-65
2024/01/13 03:37:24;;;;;;;22.83;12.03;;;0.30;96.10;;;;;;6307684;22;20008;-64
2024/01/13 03:39:50;;;;;;;26.80;14.30;;;0.30;96.20;;;;;;6307885;22;20007;-65
2024/01/13 03:42:16;;;;;;;24.00;13.57;;;0.30;95.60;;;;;;6307540;22;20011;-64
2024/01/13 03:44:42;;;;;;;26.83;14.30;;;0.30;95.50;;;;;;6307792;22;20002;-65
2024/01/13 03:47:08;;;;;;;26.43;15.10;;;0.30;94.80;;;;;;6307790;22;20121;-64
2024/01/13 03:49:33;;;;;;;27.23;15.23;;;0.30;94.40;;;;;;6307331;22;20021;-64
2024/01/13 03:51:59;;;;;;;27.83;15.03;;;0.30;94.30;;;;;;6307657;22;20054;-64
2024/01/13 03:54:25;;;;;;;28.13;14.60;;;0.30;94.30;;;;;;6307757;22;19999;-64
2024/01/13 03:56:51;;;;;;;25.17;13.80;;;0.20;94.30;;;;;;6307658;22;20011;-65
2024/01/13 03:59:17;;;;;;;28.77;14.10;;;0.20;94.30;;;;;;6307554;22;20002;-64
2024/01/13 04:01:43;;;;;;;24.80;13.53;;;0.20;94.50;;;;;;6307028;22;20004;-65
2024/01/13 04:04:09;;;;;;;20.33;12.50;;;0.10;94.80;;;;;;6307244;22;20027;-64
2024/01/13 04:06:41;;;;;;;24.07;13.70;;;0.20;94.70;;;;;;6307803;22;20003;-64
2024/01/13 04:09:08;;;;;;;23.17;12.48;;;0.20;94.80;;;;;;6307538;22;20018;-64
2024/01/13 04:11:34;;;;;;;21.43;13.13;;;0.20;94.90;;;;;;6307347;22;20482;-64
2024/01/13 04:13:59;;;;;;;23.33;13.03;;;0.20;94.70;;;;;;6307254;22;20024;-64
2024/01/13 04:16:25;;;;;;;25.90;13.33;;;0.10;94.60;;;;;;6307344;22;20003;-64
2024/01/13 04:18:51;;;;;;;24.53;13.93;;;0.10;94.60;;;;;;6307360;22;20035;-64
2024/01/13 04:21:16;;;;;;;22.13;12.47;;;0.20;94.40;;;;;;6307255;22;20003;-64
2024/01/13 04:23:43;;;;;;;25.40;13.77;;;0.10;94.60;;;;;;6307156;22;20011;-64
2024/01/13 04:26:08;;;;;;;21.90;12.57;;;0.10;94.80;;;;;;6307142;22;20053;-64
2024/01/13 04:28:34;;;;;;;21.63;13.57;;;0.00;95.10;;;;;;6307466;22;20430;-65
2024/01/13 04:31:00;;;;;;;22.73;12.77;;;0.00;95.40;;;;;;6307335;22;20002;-65
2024/01/13 04:33:26;;;;;;;24.40;14.00;;;0.00;95.70;;;;;;6306986;22;19999;-64
2024/01/13 04:35:52;;;;;;;21.63;12.63;;;0.00;95.70;;;;;;6305538;22;20026;-65
2024/01/13 04:38:18;;;;;;;21.60;13.10;;;0.00;95.30;;;;;;6307239;22;19999;-65
2024/01/13 04:40:47;;;;;;;25.73;12.50;;;0.00;95.40;;;;;;6307369;22;20004;-64
2024/01/13 04:43:13;;;;;;;25.00;12.67;;;0.00;95.40;;;;;;6307005;22;20011;-65
2024/01/13 04:45:39;;;;;;;23.00;13.10;;;-0.10;95.30;;;;;;6307351;22;20113;-64
2024/01/13 04:48:05;;;;;;;19.63;12.37;;;-0.10;95.40;;;;;;6306945;22;20046;-64
2024/01/13 04:50:31;;;;;;;21.73;12.77;;;-0.10;95.40;;;;;;6306968;22;20010;-64
2024/01/13 04:52:57;;;;;;;22.83;12.40;;;-0.10;95.80;;;;;;6306758;22;20074;-64
2024/01/13 04:55:22;;;;;;;22.20;12.10;;;-0.10;95.70;;;;;;6306935;22;19995;-64
2024/01/13 04:57:48;;;;;;;19.47;11.33;;;-0.10;95.80;;;;;;6307054;22;20002;-64
2024/01/13 05:00:14;;;;;;;19.50;11.83;;;-0.10;96.00;;;;;;6306201;22;20038;-64
2024/01/13 05:02:40;;;;;;;18.73;11.93;;;-0.10;96.80;;;;;;6306232;22;20022;-64
2024/01/13 05:05:06;;;;;;;22.53;12.97;;;-0.10;96.90;;;;;;6307036;22;19999;-67
2024/01/13 05:07:32;;;;;;;25.50;13.07;;;0.00;96.00;;;;;;6306901;22;20019;-67
2024/01/13 05:09:58;;;;;;;20.27;11.83;;;0.00;95.60;;;;;;6306664;22;20003;-66
2024/01/13 05:12:24;;;;;;;24.97;12.97;;;0.00;95.30;;;;;;6307543;22;20096;-65
2024/01/13 05:14:49;;;;;;;21.43;12.60;;;0.10;94.80;;;;;;6306057;22;20031;-64
2024/01/13 05:17:15;;;;;;;25.60;11.70;;;0.10;94.70;;;;;;6306850;22;20003;-65
2024/01/13 05:19:41;;;;;;;22.47;11.50;;;0.00;95.00;;;;;;6306816;22;20048;-64
2024/01/13 05:22:06;;;;;;;21.43;11.60;;;-0.10;94.90;;;;;;6306743;22;20035;-66
2024/01/13 05:24:32;;;;;;;21.70;11.83;;;-0.10;94.90;;;;;;6306814;22;20009;-67
2024/01/13 05:26:58;;;;;;;21.70;11.13;;;-0.10;95.00;;;;;;6306750;22;20026;-66
2024/01/13 05:29:24;;;;;;;20.60;10.57;;;-0.10;95.20;;;;;;6306598;22;20094;-67
2024/01/13 05:31:49;;;;;;;21.40;12.13;;;-0.10;95.10;;;;;;6306903;22;20000;-69
2024/01/13 05:34:15;;;;;;;19.30;11.40;;;-0.10;95.10;;;;;;6306942;22;20041;-68
2024/01/13 05:36:41;;;;;;;20.27;11.47;;;-0.20;95.40;;;;;;6307010;22;19999;-66
2024/01/13 05:39:07;;;;;;;22.67;12.17;;;-0.20;95.40;;;;;;6306383;22;20003;-68
2024/01/13 05:41:32;;;;;;;22.43;11.83;;;-0.20;95.20;;;;;;6306484;22;19999;-69
2024/01/13 05:43:58;;;;;;;21.77;11.40;;;-0.20;95.30;;;;;;6306436;22;20007;-69
2024/01/13 05:46:24;;;;;;;21.20;11.90;;;-0.20;95.60;;;;;;6306158;22;20011;-65
2024/01/13 05:48:51;;;;;;;21.53;11.13;;;-0.30;95.80;;;;;;6306646;22;20056;-67
2024/01/13 05:51:16;;;;;;;20.20;11.43;;;-0.30;96.50;;;;;;6306814;22;19995;-66
2024/01/13 05:53:43;;;;;;;21.57;12.47;;;-0.30;96.30;;;;;;6306738;22;20003;-70
2024/01/13 05:56:09;;;;;;;25.63;13.37;;;-0.30;96.30;;;;;;6306486;22;20023;-69
2024/01/13 05:58:34;;;;;;;25.57;13.50;;;-0.30;96.10;;;;;;6306278;22;20006;-65
2024/01/13 06:01:00;;;;;;;20.97;12.07;;;-0.30;96.10;;;;;;6305917;22;20025;-67
2024/01/13 06:03:26;;;;;;;22.83;12.93;;;-0.30;96.00;;;;;;6306198;22;20015;-68
2024/01/13 06:05:52;;;;;;;24.27;11.37;;;-0.30;96.20;;;;;;6306406;22;20000;-69
2024/01/13 06:08:17;;;;;;;21.77;11.87;;;-0.30;96.50;;;;;;6306410;22;20445;-67
2024/01/13 06:10:43;;;;;;;45.90;12.00;;;-0.30;96.40;;;;;;6306456;22;20002;-67
2024/01/13 06:13:09;;;;;;;27.87;11.63;;;-0.40;96.20;;;;;;6307716;22;20015;-66
2024/01/13 06:15:35;;;;;;;29.93;13.23;;;-0.40;96.30;;;;;;6308955;22;20044;-68
2024/01/13 06:18:01;;;;;;;23.80;12.37;;;-0.40;96.30;;;;;;6308869;22;20078;-70
2024/01/13 06:20:27;;;;;;;35.07;13.00;;;-0.40;96.50;;;;;;6308523;22;20010;-69
2024/01/13 06:22:52;;;;;;;28.33;12.63;;;-0.40;96.20;;;;;;6308498;22;20019;-66
2024/01/13 06:25:18;;;;;;;24.83;10.60;;;-0.40;96.10;;;;;;6308213;22;20021;-64
2024/01/13 06:27:44;;;;;;;23.00;12.47;;;-0.30;95.90;;;;;;6307652;22;20006;-65
2024/01/13 06:30:12;;;;;;;25.30;12.23;;;-0.40;96.10;;;;;;6280898;22;20010;-69
2024/01/13 06:32:38;;;;;;;21.93;12.20;;;-0.40;96.50;;;;;;6308341;22;20053;-67
2024/01/13 06:35:04;;;;;;;23.70;13.67;;;-0.40;96.50;;;;;;6308213;22;19999;-66
2024/01/13 06:37:29;;;;;;;21.50;12.00;;;-0.40;97.00;;;;;;6306848;22;20005;-68
2024/01/13 06:39:55;;;;;;;26.17;12.77;;;-0.30;96.50;;;;;;6308367;22;19999;-67
2024/01/13 06:42:21;;;;;;;22.10;12.63;;;-0.30;96.20;;;;;;6307904;22;20039;-68
2024/01/13 06:44:48;;;;;;;23.97;12.43;;;-0.30;96.00;;;;;;6308368;22;20003;-69
2024/01/13 06:47:14;;;;;;;25.57;12.67;;;-0.30;96.10;;;;;;6308089;22;20031;-66
2024/01/13 06:49:40;;;;;;;23.53;12.07;;;-0.40;96.20;;;;;;6308026;22;19999;-65
2024/01/13 06:52:08;;;;;;;23.10;12.37;;;-0.40;96.30;;;;;;6307914;22;20025;-69
2024/01/13 06:54:35;;;;;;;19.87;11.70;;;-0.40;96.30;;;;;;6308107;22;20030;-66
2024/01/13 06:57:01;;;;;;;20.13;12.07;;;-0.50;96.30;;;;;;6307424;22;20002;-66
2024/01/13 06:59:26;;;;;;;20.83;11.80;;;-0.50;96.30;;;;;;6307794;22;20004;-67
2024/01/13 07:01:52;;;;;;;22.17;11.93;;;-0.40;96.40;;;;;;6307890;22;19996;-69
2024/01/13 07:04:18;;;;;;;19.17;11.13;;;-0.50;96.50;;;;;;6305785;22;20001;-65
2024/01/13 07:06:44;;;;;;;20.50;10.67;;;-0.50;96.70;;;;;;6307446;22;20000;-66
2024/01/13 07:09:09;;;;;;;22.57;12.27;;;-0.50;96.80;;;;;;6308059;22;20117;-68
2024/01/13 07:11:35;;;;;;;21.77;11.93;;;-0.50;96.90;;;;;;6307553;22;19992;-68
2024/01/13 07:14:01;;;;;;;21.57;11.50;;;-0.40;97.10;;;;;;6307299;22;20053;-68
2024/01/13 07:16:28;;;;;;;22.53;12.67;;;-0.40;97.30;;;;;;6307049;22;20015;-66
2024/01/13 07:18:53;;;;;;;28.83;12.80;;;-0.40;97.50;;;;;;6307201;22;20392;-69
2024/01/13 07:21:19;;;;;;;25.17;13.33;;;-0.40;97.60;;;;;;6307387;22;20029;-69
2024/01/13 07:23:45;;;;;;;22.73;12.53;;;-0.30;97.20;;;;;;6306835;22;20011;-66
2024/01/13 07:26:11;;;;;;;25.60;12.80;;;-0.40;97.30;;;;;;6306856;22;20000;-65
2024/01/13 07:28:37;;;;;;;23.63;12.47;;;-0.30;97.00;;;;;;6265480;22;20011;-64
2024/01/13 07:31:04;;;;;;;25.73;13.77;;;-0.30;97.30;;;;;;6307078;22;19999;-68
2024/01/13 07:33:30;;;;;;;23.63;13.87;;;-0.30;97.60;;;;;;6307100;22;20425;-71
2024/01/13 07:35:56;;;;;;;29.07;14.03;;;-0.30;97.40;;;;;;6306393;22;20025;-68
2024/01/13 07:38:21;;;;;;;28.50;14.37;;;-0.20;97.80;;;;;;6300270;22;20010;-69
2024/01/13 07:40:47;;;;;;;23.33;13.23;;;-0.20;98.20;;;;;;6297349;22;20920;-66
2024/01/13 07:43:13;;;;;;;22.43;11.93;;;-0.20;98.70;;;;;;6302116;22;20045;-63
2024/01/13 07:45:39;;;;;;;19.73;11.47;;;-0.10;98.60;;;;;;6306598;22;20168;-65
2024/01/13 07:48:05;;;;;;;20.70;11.33;;;0.00;98.50;;;;;;6306690;22;20015;-66
2024/01/13 07:50:31;;;;;;;20.23;11.97;;;0.00;98.30;;;;;;6306733;22;20092;-69
2024/01/13 07:52:56;;;;;;;20.37;11.80;;;0.10;98.60;;;;;;6303537;22;20031;-69
2024/01/13 07:55:22;;;;;;;20.67;11.07;;;0.20;98.80;;;;;;6302518;22;20031;-65
2024/01/13 07:57:48;;;;;;;19.87;11.10;;;0.30;98.50;;;;;;6303622;22;20000;-68
2024/01/13 08:00:14;;;;;;;20.73;11.33;;;0.30;98.70;;;;;;6306147;22;20073;-67
2024/01/13 08:02:39;;;;;;;22.07;11.67;;;0.40;98.20;;;;;;6305996;22;20017;-65
2024/01/13 08:05:05;;;;;;;21.70;11.67;;;0.50;97.50;;;;;;6306634;22;20066;-69
2024/01/13 08:07:31;;;;;;;19.10;11.50;;;0.60;97.10;;;;;;6306825;22;20011;-65
2024/01/13 08:09:57;;;;;;;18.53;10.87;;;0.70;96.60;;;;;;6307277;22;19999;-64
2024/01/13 08:12:23;;;;;;;23.13;11.40;;;0.80;96.10;;;;;;6307640;22;20007;-65
2024/01/13 08:14:49;;;;;;;23.87;11.97;;;0.90;95.60;;;;;;6306735;22;19995;-65
2024/01/13 08:17:15;;;;;;;23.60;12.10;;;0.90;95.30;;;;;;6305252;22;20015;-64
2024/01/13 08:19:40;;;;;;;29.13;12.40;;;1.00;95.20;;;;;;6303581;22;20003;-64
2024/01/13 08:22:06;;;;;;;24.67;12.47;;;1.10;94.90;;;;;;6304929;22;20014;-64
2024/01/13 08:24:32;;;;;;;22.57;12.20;;;1.10;95.10;;;;;;6306838;22;20000;-65
2024/01/13 08:26:58;;;;;;;22.70;12.97;;;;;;;;;;6306825;22;20023;-65
2024/01/13 08:29:24;;;;;;;26.60;14.13;;;1.20;95.00;;;;;;6307121;22;20125;-64
2024/01/13 08:31:50;;;;;;;23.80;14.60;;;1.30;94.50;;;;;;6307639;22;20433;-64
2024/01/13 08:34:16;;;;;;;27.87;13.90;;;1.40;94.30;;;;;;6307191;22;19999;-64
2024/01/13 08:36:42;;;;;;;26.47;14.03;;;1.50;94.30;;;;;;6307036;22;20053;-64
2024/01/13 08:39:08;;;;;;;27.03;14.07;;;1.50;94.50;;;;;;6306727;22;19995;-64
2024/01/13 08:41:34;;;;;;;21.40;13.10;;;1.70;99.30;;;;;;6306909;22;19999;-64
2024/01/13 08:44:01;;;;;;;26.40;15.63;;;1.70;99.90;;;;;;6307074;22;20045;-67
2024/01/13 08:46:27;;;;;;;28.27;16.37;;;1.70;99.90;;;;;;6307063;22;20080;-64
2024/01/13 08:48:52;;;;;;;35.20;19.70;;;1.70;99.90;;;;;;6307246;22;20003;-64
2024/01/13 08:51:18;;;;;;;33.13;19.27;;;1.80;99.80;;;;;;6307246;22;20006;-65
2024/01/13 08:53:47;;;;;;;32.60;18.33;;;1.90;99.90;;;;;;6307037;22;20053;-65
2024/01/13 08:56:14;;;;;;;34.17;18.43;;;;;;;;;;6306776;22;20003;-65
2024/01/13 08:58:41;;;;;;;31.30;16.37;;;1.90;99.90;;;;;;6307018;22;20022;-65
2024/01/13 09:01:07;;;;;;;28.80;15.70;;;2.00;99.90;;;;;;6307128;22;20486;-65
2024/01/13 09:03:32;;;;;;;36.00;17.90;;;2.10;99.90;;;;;;6304849;22;20106;-65
2024/01/13 09:05:59;;;;;;;29.40;17.00;;;2.10;99.90;;;;;;6303608;22;20334;-65
2024/01/13 09:08:25;;;;;;;32.27;17.93;;;2.20;99.90;;;;;;6305054;22;20000;-66
2024/01/13 09:10:50;;;;;;;33.17;19.60;;;2.20;99.90;;;;;;6306982;22;19999;-65
2024/01/13 09:13:16;;;;;;;60.70;26.40;;;2.20;99.90;;;;;;6306751;22;20010;-65
2024/01/13 09:15:42;;;;;;;41.57;24.20;;;2.30;99.90;;;;;;6306997;22;20019;-65
2024/01/13 09:18:08;;;;;;;34.50;17.70;;;;;;;;;;6307103;22;20072;-65
2024/01/13 09:20:34;;;;;;;34.23;18.83;;;;;;;;;;6306916;22;19995;-65
2024/01/13 09:23:00;;;;;;;30.17;18.17;;;;;;;;;;6306736;22;20075;-65
2024/01/13 09:25:27;;;;;;;36.40;18.87;;;;;;;;;;6307084;22;20473;-65
2024/01/13 09:27:53;;;;;;;28.60;14.50;;;;;;;;;;6305558;22;20014;-65
2024/01/13 09:30:19;;;;;;;26.53;15.70;;;;;;;;;;6303650;22;20003;-64
2024/01/13 09:32:45;;;;;;;24.27;14.63;;;;;;;;;;6302911;22;20016;-65
2024/01/13 09:35:11;;;;;;;26.20;13.03;;;;;;;;;;6305108;22;20457;-64
2024/01/13 09:37:37;;;;;;;20.67;12.27;;;;;;;;;;6306756;22;20452;-65
2024/01/13 09:40:04;;;;;;;22.00;12.80;;;;;;;;;;6306731;22;20324;-63
2024/01/13 09:42:31;;;;;;;19.77;12.53;;;;;;;;;;6306755;22;20019;-65
2024/01/13 09:44:57;;;;;;;20.97;11.80;;;;;;;;;;6306771;22;20000;-64
2024/01/13 09:47:24;;;;;;;23.30;13.47;;;;;;;;;;6307526;22;20011;-64
2024/01/13 09:49:53;;;;;;;23.77;13.80;;;;;;;;;;6308590;22;20001;-65
2024/01/13 09:52:19;;;;;;;24.80;13.97;;;;;;;;;;6308136;22;20267;-65
2024/01/13 09:54:48;;;;;;;25.77;14.47;;;;;;;;;;6308551;22;20030;-65
2024/01/13 09:57:14;;;;;;;25.00;14.00;;;;;;;;;;6281610;22;20086;-65
2024/01/13 09:59:41;;;;;;;22.10;11.10;;;;;;;;;;6308618;22;20003;-64
2024/01/13 10:02:13;;;;;;;17.53;10.60;;;;;;;;;;6280894;22;20007;-64
2024/01/13 10:04:40;;;;;;;22.03;10.53;;;;;;;;;;6308264;22;20006;-66
2024/01/13 10:07:08;;;;;;;19.10;10.10;;;;;;;;;;6308252;22;19999;-64
2024/01/13 10:09:34;;;;;;;18.53;10.57;;;;;;;;;;6281147;22;20057;-65
2024/01/13 10:12:01;;;;;;;19.47;9.40;;;3.60;88.60;;;;;;6308517;22;20004;-65
2024/01/13 10:14:27;;;;;;;17.80;10.33;;;3.60;89.70;;;;;;6308203;22;20469;-64
2024/01/13 10:16:52;;;;;;;17.23;9.57;;;3.60;89.60;;;;;;6308789;22;20030;-65
2024/01/13 10:19:18;;;;;;;16.43;8.87;;;3.60;89.10;;;;;;6308560;22;19999;-65
2024/01/13 10:21:45;;;;;;;14.93;9.27;;;3.70;88.80;;;;;;6308065;22;20013;-65
2024/01/13 10:24:10;;;;;;;18.60;11.93;;;3.80;87.70;;;;;;6308379;22;20022;-65
2024/01/13 10:26:36;;;;;;;16.13;9.20;;;3.90;87.60;;;;;;6308245;22;20023;-65
2024/01/13 10:29:02;;;;;;;17.33;9.23;;;;;;;;;;6307617;22;20467;-64
2024/01/13 10:31:32;;;;;;;20.50;8.90;;;3.90;85.60;;;;;;6308619;22;20321;-65
2024/01/13 10:33:57;;;;;;;13.63;8.40;;;4.00;85.90;;;;;;6308444;22;20082;-64
2024/01/13 10:36:24;;;;;;;19.13;9.93;;;4.10;85.80;;;;;;6308329;22;20490;-65
2024/01/13 10:38:54;;;;;;;15.20;9.03;;;;;;;;;;6308264;22;20074;-64
2024/01/13 10:41:24;;;;;;;17.63;8.90;;;;;;;;;;6308518;22;20386;-65
2024/01/13 10:43:53;;;;;;;13.67;8.70;;;;;;;;;;6307782;22;20011;-64
2024/01/13 10:46:22;;;;;;;16.50;9.07;;;;;;;;;;6307886;22;19999;-66
2024/01/13 10:48:51;;;;;;;15.07;9.00;;;;;;;;;;6307716;22;19999;-66
2024/01/13 10:51:17;;;;;;;13.97;8.60;;;;;;;;;;6307718;22;20048;-67
2024/01/13 10:53:44;;;;;;;13.10;7.90;;;;;;;;;;6307915;22;20007;-65
2024/01/13 10:56:11;;;;;;;15.73;8.90;;;;;;;;;;6307924;22;20000;-66
2024/01/13 10:58:37;;;;;;;13.13;7.90;;;;;;;;;;6306684;22;20306;-66
2024/01/13 11:01:03;;;;;;;12.43;8.53;;;4.20;85.90;;;;;;6307777;22;20422;-64
2024/01/13 11:03:29;;;;;;;13.67;8.00;;;4.90;83.10;;;;;;6307714;22;20012;-65
2024/01/13 11:05:55;;;;;;;13.83;9.00;;;;;;;;;;6307601;22;20048;-65
2024/01/13 11:08:21;;;;;;;15.03;8.77;;;;;;;;;;6307826;22;20021;-65
2024/01/13 11:10:50;;;;;;;13.53;7.80;;;;;;;;;;6280002;22;20338;-65
2024/01/13 11:13:29;;;;;;;13.27;8.43;;;4.90;82.10;;;;;;6307215;22;19999;-65
2024/01/13 11:16:09;;;;;;;18.13;8.20;;;5.30;80.70;;;;;;6307755;22;20453;-66
2024/01/13 11:18:44;;;;;;;11.40;7.33;;;5.30;79.80;;;;;;6307625;22;20061;-66
2024/01/13 11:21:11;;;;;;;14.37;6.97;;;5.40;78.80;;;;;;6307226;22;20003;-66
2024/01/13 11:23:38;;;;;;;10.30;6.93;;;5.40;78.30;;;;;;6306835;22;20012;-66
2024/01/13 11:26:05;;;;;;;16.53;7.77;;;;;;;;;;6307581;22;20037;-65
2024/01/13 11:28:51;;;;;;;13.47;8.23;;;5.50;78.60;;;;;;6306764;22;20011;-65
2024/01/13 11:31:38;;;;;;;11.27;7.20;;;5.70;78.70;;;;;;6307742;22;20084;-65
2024/01/13 11:34:06;;;;;;;13.90;7.67;;;5.80;78.60;;;;;;6307227;22;20003;-66
2024/01/13 11:36:49;;;;;;;11.53;7.47;;;5.90;78.30;;;;;;6306938;22;19995;-65
2024/01/13 11:39:17;;;;;;;12.77;7.37;;;5.90;77.60;;;;;;6306970;22;20433;-65
2024/01/13 11:41:48;;;;;;;15.13;7.70;;;5.90;77.20;;;;;;6307373;22;20010;-66
2024/01/13 11:44:25;;;;;;;13.27;7.40;;;6.00;77.30;;;;;;6306705;22;20042;-65
2024/01/13 11:47:05;;;;;;;14.27;7.43;;;6.10;77.30;;;;;;6307071;22;20125;-66
2024/01/13 11:49:34;;;;;;;15.87;8.40;;;6.10;77.00;;;;;;6307117;22;19999;-65
2024/01/13 11:52:01;;;;;;;15.70;8.00;;;6.20;76.60;;;;;;6307050;22;20489;-67
2024/01/13 11:54:28;;;;;;;13.80;8.03;;;6.20;77.40;;;;;;6307545;22;20326;-65
2024/01/13 11:56:56;;;;;;;14.13;8.17;;;6.30;77.90;;;;;;6306726;22;20086;-66
2024/01/13 11:59:22;;;;;;;11.53;7.87;;;6.30;77.60;;;;;;6306723;22;20011;-65
2024/01/13 12:01:48;;;;;;;13.47;8.03;;;6.30;77.60;;;;;;6307019;22;19999;-65
2024/01/13 12:04:16;;;;;;;14.63;9.03;;;6.40;77.50;;;;;;6306317;22;20021;-65
2024/01/13 12:06:43;;;;;;;13.83;8.90;;;6.40;77.40;;;;;;6306953;22;19999;-66
2024/01/13 12:09:11;;;;;;;12.77;8.00;;;6.40;77.90;;;;;;6305756;22;20325;-66
2024/01/13 12:11:37;;;;;;;14.93;8.93;;;6.50;78.10;;;;;;6306978;22;20034;-66
2024/01/13 12:14:04;;;;;;;14.47;8.57;;;6.50;77.40;;;;;;6307049;22;20003;-65
2024/01/13 12:16:31;;;;;;;19.60;8.87;;;6.60;78.30;;;;;;6307138;22;19999;-65
2024/01/13 12:18:56;;;;;;;16.03;9.93;;;6.60;77.80;;;;;;6307544;22;20003;-65
2024/01/13 12:21:22;;;;;;;14.40;9.13;;;6.60;76.90;;;;;;6306992;22;20627;-65
2024/01/13 12:23:48;;;;;;;13.13;8.70;;;6.60;76.70;;;;;;6307096;22;20086;-66
2024/01/13 12:26:14;;;;;;;14.57;8.17;;;6.60;77.20;;;;;;6306876;22;20006;-66
2024/01/13 12:28:40;;;;;;;17.73;9.13;;;6.70;77.30;;;;;;6306652;22;20007;-66
2024/01/13 12:31:06;;;;;;;13.73;8.80;;;6.70;77.20;;;;;;6306912;22;19999;-66
2024/01/13 12:33:32;;;;;;;14.53;9.30;;;6.80;77.30;;;;;;6307145;22;20494;-65
2024/01/13 12:36:03;;;;;;;17.50;9.37;;;6.80;77.50;;;;;;6306742;22;19999;-66
2024/01/13 12:38:32;;;;;;;17.63;8.93;;;6.90;77.70;;;;;;6306978;22;20022;-68
2024/01/13 12:40:58;;;;;;;15.10;9.23;;;6.90;77.60;;;;;;6306834;22;20499;-65
2024/01/13 12:43:25;;;;;;;14.20;9.63;;;6.90;77.10;;;;;;6306262;22;20014;-65